createdAt,value
2018-07-11T00:00:44.126Z,25.80
2018-07-11T00:03:12.684Z,25.80
2018-07-11T00:05:41.197Z,25.70
2018-07-11T00:08:09.595Z,25.80
2018-07-11T00:10:38.643Z,25.80
2018-07-11T00:13:07.269Z,25.80
2018-07-11T00:15:35.862Z,25.80
2018-07-11T00:18:04.228Z,25.70
2018-07-11T00:20:32.661Z,25.70
2018-07-11T00:23:01.026Z,25.70
2018-07-11T00:25:30.174Z,25.70
2018-07-11T00:27:58.728Z,25.70
2018-07-11T00:30:27.144Z,25.70
2018-07-11T00:32:55.940Z,25.70
2018-07-11T00:35:24.344Z,25.70
2018-07-11T00:37:52.884Z,25.70
2018-07-11T00:40:21.743Z,25.60
2018-07-11T00:42:50.304Z,25.60
2018-07-11T00:45:18.874Z,25.60
2018-07-11T00:47:47.444Z,25.60
2018-07-11T00:50:15.840Z,25.60
2018-07-11T00:55:12.338Z,25.60
2018-07-11T00:57:40.753Z,25.60
2018-07-11T01:00:09.359Z,25.60
2018-07-11T01:02:37.758Z,25.60
2018-07-11T01:05:06.324Z,25.60
2018-07-11T01:07:34.690Z,25.60
2018-07-11T01:10:03.648Z,25.60
2018-07-11T01:12:32.510Z,25.60
2018-07-11T01:15:00.883Z,25.60
2018-07-11T01:17:34.870Z,25.60
2018-07-11T01:20:03.286Z,25.60
2018-07-11T01:22:31.761Z,25.60
2018-07-11T01:25:00.141Z,25.60
2018-07-11T01:27:28.488Z,25.60
2018-07-11T01:29:56.990Z,25.50
2018-07-11T01:32:25.397Z,25.60
2018-07-11T01:34:53.754Z,25.60
2018-07-11T01:37:22.122Z,25.60
2018-07-11T01:39:50.484Z,25.60
2018-07-11T01:42:18.860Z,25.60
2018-07-11T01:44:48.398Z,25.60
2018-07-11T01:47:16.763Z,25.60
2018-07-11T01:49:45.156Z,25.60
2018-07-11T01:52:24.980Z,25.50
2018-07-11T01:54:53.379Z,25.50
2018-07-11T01:57:21.739Z,25.50
2018-07-11T01:59:50.121Z,25.50
2018-07-11T02:02:18.485Z,25.50
2018-07-11T02:04:47.108Z,25.50
2018-07-11T02:07:15.660Z,25.50
2018-07-11T02:12:12.311Z,25.50
2018-07-11T02:14:40.812Z,25.50
2018-07-11T02:17:09.186Z,25.50
2018-07-11T02:19:38.145Z,25.50
2018-07-11T02:22:06.538Z,25.50
2018-07-11T02:24:35.065Z,25.50
2018-07-11T02:27:03.441Z,25.50
2018-07-11T02:29:31.854Z,25.40
2018-07-11T02:32:00.606Z,25.40
2018-07-11T02:34:33.512Z,25.40
2018-07-11T02:37:02.320Z,25.40
2018-07-11T02:39:31.031Z,25.40
2018-07-11T02:44:28.546Z,25.40
2018-07-11T02:47:02.273Z,25.40
2018-07-11T02:49:32.452Z,25.40
2018-07-11T02:52:01.576Z,25.40
2018-07-11T02:54:30.305Z,25.40
2018-07-11T02:56:58.856Z,25.40
2018-07-11T02:59:27.260Z,25.30
2018-07-11T03:01:55.672Z,25.30
2018-07-11T03:04:24.305Z,25.30
2018-07-11T03:06:52.786Z,25.30
2018-07-11T03:09:21.268Z,25.30
2018-07-11T03:11:49.695Z,25.30
2018-07-11T03:14:18.213Z,25.30
2018-07-11T03:16:46.741Z,25.30
2018-07-11T03:19:15.621Z,25.30
2018-07-11T03:21:44.424Z,25.30
2018-07-11T03:24:12.788Z,25.30
2018-07-11T03:26:41.271Z,25.30
2018-07-11T03:29:09.631Z,25.30
2018-07-11T03:31:38.186Z,25.30
2018-07-11T03:34:07.121Z,25.30
2018-07-11T03:36:35.705Z,25.30
2018-07-11T03:39:04.899Z,25.30
2018-07-11T03:41:33.563Z,25.30
2018-07-11T03:44:01.988Z,25.30
2018-07-11T03:46:30.620Z,25.30
2018-07-11T03:48:59.710Z,25.30
2018-07-11T03:51:28.428Z,25.30
2018-07-11T03:53:57.036Z,25.30
2018-07-11T03:56:25.942Z,25.30
2018-07-11T03:58:54.612Z,25.30
2018-07-11T04:01:22.972Z,25.30
2018-07-11T04:03:51.652Z,25.30
2018-07-11T04:06:20.003Z,25.30
2018-07-11T04:08:48.365Z,25.30
2018-07-11T04:11:16.812Z,25.30
2018-07-11T04:13:45.217Z,25.30
2018-07-11T04:16:13.610Z,25.30
2018-07-11T04:18:42.057Z,25.30
2018-07-11T04:21:10.432Z,25.30
2018-07-11T04:23:38.961Z,25.30
2018-07-11T04:26:07.472Z,25.30
2018-07-11T04:28:35.880Z,25.30
2018-07-11T04:31:04.236Z,25.40
2018-07-11T04:33:33.328Z,25.90
2018-07-11T04:36:02.017Z,26.50
2018-07-11T04:38:30.416Z,27.20
2018-07-11T04:40:58.767Z,27.60
2018-07-11T04:43:27.285Z,28.10
2018-07-11T04:45:56.300Z,28.60
2018-07-11T04:48:24.688Z,29.00
2018-07-11T04:50:53.046Z,29.20
2018-07-11T04:53:23.999Z,29.50
2018-07-11T04:56:04.967Z,29.80
2018-07-11T04:58:33.813Z,29.70
2018-07-11T05:01:02.374Z,29.20
2018-07-11T05:03:30.879Z,28.70
2018-07-11T05:05:59.855Z,28.30
2018-07-11T05:08:28.297Z,27.90
2018-07-11T05:10:57.005Z,27.60
2018-07-11T05:13:25.260Z,27.30
2018-07-11T05:15:54.408Z,27.20
2018-07-11T05:18:22.866Z,27.00
2018-07-11T05:20:51.340Z,26.90
2018-07-11T05:23:19.746Z,26.80
2018-07-11T05:25:48.268Z,26.80
2018-07-11T05:28:16.632Z,26.70
2018-07-11T05:33:13.900Z,26.60
2018-07-11T05:35:42.372Z,26.60
2018-07-11T05:38:10.793Z,26.60
2018-07-11T05:40:39.429Z,26.60
2018-07-11T05:43:08.036Z,26.50
2018-07-11T05:45:36.417Z,26.50
2018-07-11T05:48:05.022Z,26.60
2018-07-11T05:50:33.413Z,26.50
2018-07-11T05:53:01.840Z,26.60
2018-07-11T05:55:30.259Z,26.60
2018-07-11T05:57:58.631Z,26.60
2018-07-11T06:00:27.258Z,26.60
2018-07-11T06:02:55.667Z,26.50
2018-07-11T06:05:24.114Z,26.60
2018-07-11T06:07:52.637Z,26.60
2018-07-11T06:10:21.185Z,26.60
2018-07-11T06:12:49.808Z,26.60
2018-07-11T06:15:18.402Z,26.60
2018-07-11T06:17:47.165Z,26.80
2018-07-11T06:20:16.481Z,26.90
2018-07-11T06:22:45.292Z,27.00
2018-07-11T06:25:13.747Z,27.00
2018-07-11T06:27:42.407Z,27.10
2018-07-11T06:30:11.092Z,27.20
2018-07-11T06:32:39.630Z,27.30
2018-07-11T06:37:36.370Z,27.30
2018-07-11T06:40:05.022Z,27.30
2018-07-11T06:42:33.564Z,27.30
2018-07-11T06:45:02.033Z,27.30
2018-07-11T06:47:30.847Z,27.20
2018-07-11T06:49:59.342Z,27.10
2018-07-11T06:52:27.921Z,27.10
2018-07-11T06:54:56.560Z,27.10
2018-07-11T06:57:24.978Z,27.10
2018-07-11T06:59:53.592Z,27.00
2018-07-11T07:02:22.243Z,27.00
2018-07-11T07:04:50.745Z,26.90
2018-07-11T07:07:19.749Z,26.90
2018-07-11T07:09:48.253Z,26.90
2018-07-11T07:12:16.997Z,26.90
2018-07-11T07:14:45.563Z,26.90
2018-07-11T07:17:14.227Z,26.90
2018-07-11T07:19:44.129Z,26.90
2018-07-11T07:22:12.763Z,26.90
2018-07-11T07:24:41.768Z,26.90
2018-07-11T07:27:10.349Z,26.90
2018-07-11T07:29:39.007Z,26.90
2018-07-11T07:32:08.179Z,26.80
2018-07-11T07:34:36.910Z,26.80
2018-07-11T07:37:05.361Z,26.80
2018-07-11T07:39:33.959Z,26.80
2018-07-11T07:42:02.938Z,26.80
2018-07-11T07:44:31.521Z,26.80
2018-07-11T07:47:00.858Z,26.90
2018-07-11T07:49:31.161Z,26.90
2018-07-11T07:52:00.870Z,26.90
2018-07-11T07:54:30.037Z,26.90
2018-07-11T07:56:58.568Z,26.90
2018-07-11T07:59:27.425Z,26.90
2018-07-11T08:01:56.818Z,26.90
2018-07-11T08:04:25.303Z,26.80
2018-07-11T08:06:53.775Z,26.90
2018-07-11T08:09:24.370Z,26.90
2018-07-11T08:11:52.840Z,26.90
2018-07-11T08:14:27.304Z,26.80
2018-07-11T08:16:55.916Z,26.80
2018-07-11T08:19:24.487Z,26.80
2018-07-11T08:24:32.388Z,26.80
2018-07-11T08:27:12.948Z,26.80
2018-07-11T08:29:50.630Z,26.80
2018-07-11T08:32:36.047Z,26.80
2018-07-11T08:36:14.589Z,26.70
2018-07-11T08:38:54.467Z,26.70
2018-07-11T08:41:39.008Z,26.60
2018-07-11T08:44:16.897Z,26.60
2018-07-11T08:47:00.229Z,26.60
2018-07-11T08:49:40.005Z,26.60
2018-07-11T08:52:20.256Z,26.70
2018-07-11T08:55:02.672Z,26.70
2018-07-11T08:57:40.009Z,26.90
2018-07-11T09:00:29.425Z,27.00
2018-07-11T09:03:12.169Z,27.00
2018-07-11T09:06:58.683Z,27.00
2018-07-11T09:09:45.995Z,27.00
2018-07-11T09:12:23.181Z,26.90
2018-07-11T09:15:22.058Z,26.90
2018-07-11T09:19:04.244Z,26.90
2018-07-11T09:22:48.321Z,26.90
2018-07-11T09:25:17.077Z,26.80
2018-07-11T09:27:49.020Z,26.70
2018-07-11T09:30:17.978Z,26.70
2018-07-11T09:32:46.550Z,26.70
2018-07-11T09:35:15.060Z,26.70
2018-07-11T09:37:43.688Z,26.70
2018-07-11T09:40:12.601Z,26.70
2018-07-11T09:42:41.673Z,26.60
2018-07-11T09:47:39.670Z,26.60
2018-07-11T09:50:08.481Z,26.60
2018-07-11T09:52:37.547Z,26.60
2018-07-11T09:55:11.482Z,26.60
2018-07-11T09:57:40.671Z,26.60
2018-07-11T10:02:42.155Z,26.60
2018-07-11T10:05:10.557Z,26.50
2018-07-11T10:07:38.946Z,26.50
2018-07-11T10:10:07.999Z,26.50
2018-07-11T10:12:36.404Z,26.60
2018-07-11T10:15:05.127Z,26.60
2018-07-11T10:17:34.061Z,26.60
2018-07-11T10:20:02.721Z,26.70
2018-07-11T10:22:31.769Z,26.70
2018-07-11T10:25:00.274Z,26.70
2018-07-11T10:27:29.552Z,26.70
2018-07-11T10:29:57.964Z,26.70
2018-07-11T10:32:26.504Z,26.70
2018-07-11T10:34:55.037Z,26.70
2018-07-11T10:37:23.652Z,26.70
2018-07-11T10:39:52.057Z,26.70
2018-07-11T10:42:20.840Z,26.60
2018-07-11T10:44:49.357Z,26.60
2018-07-11T10:47:18.185Z,26.50
2018-07-11T10:49:46.599Z,26.60
2018-07-11T10:52:15.775Z,26.50
2018-07-11T10:54:44.157Z,26.50
2018-07-11T10:57:12.707Z,26.50
2018-07-11T10:59:41.737Z,26.50
2018-07-11T11:02:10.926Z,26.60
2018-07-11T11:04:39.336Z,26.50
2018-07-11T11:07:07.762Z,26.50
2018-07-11T11:09:36.804Z,26.50
2018-07-11T11:12:05.537Z,26.50
2018-07-11T11:14:34.151Z,26.40
2018-07-11T11:17:02.799Z,26.40
2018-07-11T11:19:31.348Z,26.40
2018-07-11T11:22:00.086Z,26.40
2018-07-11T11:24:28.809Z,26.30
2018-07-11T11:26:57.333Z,26.30
2018-07-11T11:29:25.943Z,26.30
2018-07-11T11:31:54.385Z,26.30
2018-07-11T11:34:23.082Z,26.30
2018-07-11T11:36:51.632Z,26.30
2018-07-11T11:39:20.772Z,26.30
2018-07-11T11:41:49.511Z,26.40
2018-07-11T11:44:18.284Z,26.20
2018-07-11T11:46:47.150Z,26.40
2018-07-11T11:49:15.745Z,26.40
2018-07-11T11:51:44.224Z,26.40
2018-07-11T11:54:12.776Z,26.40
2018-07-11T11:56:41.169Z,26.40
2018-07-11T11:59:09.663Z,26.40
2018-07-11T12:01:38.686Z,26.40
2018-07-11T12:04:07.903Z,26.40
2018-07-11T12:06:36.519Z,26.40
2018-07-11T12:09:05.086Z,26.40
2018-07-11T12:11:33.594Z,26.40
2018-07-11T12:14:01.996Z,26.30
2018-07-11T12:16:30.613Z,26.30
2018-07-11T12:18:59.549Z,26.30
2018-07-11T12:21:28.186Z,26.30
2018-07-11T12:23:56.872Z,26.40
2018-07-11T12:26:26.224Z,26.40
2018-07-11T12:28:54.725Z,26.40
2018-07-11T12:31:23.123Z,26.40
2018-07-11T12:33:51.782Z,26.50
2018-07-11T12:36:20.224Z,26.50
2018-07-11T12:38:53.300Z,26.50
2018-07-11T12:41:22.353Z,26.50
2018-07-11T12:43:51.201Z,26.60
2018-07-11T12:46:19.834Z,26.50
2018-07-11T12:48:54.354Z,26.50
2018-07-11T12:51:22.920Z,26.60
2018-07-11T12:53:51.469Z,26.60
2018-07-11T12:56:20.053Z,26.60
2018-07-11T12:58:48.438Z,26.60
2018-07-11T13:01:16.876Z,26.60
2018-07-11T13:03:45.872Z,26.60
2018-07-11T13:06:14.560Z,26.60
2018-07-11T13:08:43.242Z,26.60
2018-07-11T13:11:12.078Z,26.60
2018-07-11T13:13:40.471Z,26.70
2018-07-11T13:16:08.946Z,26.60
2018-07-11T13:18:37.831Z,26.60
2018-07-11T13:21:06.275Z,26.70
2018-07-11T13:26:03.030Z,26.70
2018-07-11T13:28:31.799Z,26.60
2018-07-11T13:31:00.204Z,26.60
2018-07-11T13:33:29.146Z,26.60
2018-07-11T13:35:57.717Z,26.60
2018-07-11T13:38:26.141Z,26.60
2018-07-11T13:40:54.780Z,26.60
2018-07-11T13:43:24.181Z,26.60
2018-07-11T13:45:52.686Z,26.60
2018-07-11T13:48:21.174Z,26.50
2018-07-11T13:50:49.865Z,26.50
2018-07-11T13:53:19.070Z,26.50
2018-07-11T13:55:47.823Z,26.40
2018-07-11T13:58:16.399Z,26.40
2018-07-11T14:00:44.813Z,26.40
2018-07-11T14:03:13.684Z,26.40
2018-07-11T14:05:42.169Z,26.40
2018-07-11T14:08:11.731Z,26.40
2018-07-11T14:10:40.173Z,26.40
2018-07-11T14:13:08.822Z,26.30
2018-07-11T14:15:37.283Z,26.30
2018-07-11T14:18:06.401Z,26.30
2018-07-11T14:20:34.912Z,26.40
2018-07-11T14:23:07.835Z,26.50
2018-07-11T14:25:39.958Z,26.50
2018-07-11T14:28:08.869Z,26.50
2018-07-11T14:30:39.041Z,26.50
2018-07-11T14:33:09.496Z,26.40
2018-07-11T14:35:38.929Z,26.40
2018-07-11T14:38:07.972Z,26.50
2018-07-11T14:40:37.040Z,26.50
2018-07-11T14:43:06.475Z,26.40
2018-07-11T14:48:09.364Z,26.50
2018-07-11T14:50:38.087Z,26.50
2018-07-11T14:53:06.881Z,26.50
2018-07-11T14:55:35.621Z,26.50
2018-07-11T14:58:04.353Z,26.50
2018-07-11T15:00:35.009Z,26.50
2018-07-11T15:03:03.756Z,26.50
2018-07-11T15:05:32.253Z,26.60
2018-07-11T15:08:00.901Z,26.60
2018-07-11T15:10:29.497Z,26.60
2018-07-11T15:12:57.918Z,26.60
2018-07-11T15:15:26.376Z,26.60
2018-07-11T15:17:55.732Z,26.60
2018-07-11T15:20:24.251Z,26.60
2018-07-11T15:22:54.037Z,26.60
2018-07-11T15:25:22.615Z,26.60
2018-07-11T15:27:51.144Z,26.60
2018-07-11T15:30:20.208Z,26.60
2018-07-11T15:32:48.780Z,26.60
2018-07-11T15:35:17.467Z,26.60
2018-07-11T15:37:45.975Z,26.60
2018-07-11T15:40:14.642Z,26.70
2018-07-11T15:42:44.581Z,26.70
2018-07-11T15:45:13.117Z,26.80
2018-07-11T15:47:44.483Z,26.90
2018-07-11T15:50:13.996Z,26.90
2018-07-11T15:52:42.615Z,26.90
2018-07-11T15:55:12.462Z,26.90
2018-07-11T15:57:51.633Z,27.00
2018-07-11T16:00:29.355Z,27.00
2018-07-11T16:02:59.473Z,27.00
2018-07-11T16:05:30.366Z,27.00
2018-07-11T16:08:03.696Z,27.00
2018-07-11T16:13:07.413Z,27.10
2018-07-11T16:15:36.244Z,27.10
2018-07-11T16:18:06.005Z,27.10
2018-07-11T16:20:35.232Z,27.10
2018-07-11T16:23:10.117Z,27.10
2018-07-11T16:25:40.591Z,27.20
2018-07-11T16:28:09.880Z,27.10
2018-07-11T16:30:38.268Z,27.20
2018-07-11T16:33:06.740Z,27.20
2018-07-11T16:35:35.120Z,27.20
2018-07-11T16:38:07.677Z,27.20
2018-07-11T16:43:05.669Z,27.20
2018-07-11T16:45:34.309Z,27.20
2018-07-11T16:48:03.032Z,27.20
2018-07-11T16:50:31.519Z,27.20
2018-07-11T16:53:00.257Z,27.20
2018-07-11T16:55:30.147Z,27.20
2018-07-11T16:57:58.792Z,27.30
2018-07-11T17:00:29.673Z,27.30
2018-07-11T17:03:01.591Z,27.30
2018-07-11T17:05:39.242Z,27.30
2018-07-11T17:08:07.682Z,27.30
2018-07-11T17:10:36.409Z,27.30
2018-07-11T17:13:12.034Z,27.20
2018-07-11T17:15:45.515Z,27.30
2018-07-11T17:18:18.301Z,27.30
2018-07-11T17:20:46.900Z,27.30
2018-07-11T17:23:16.495Z,27.30
2018-07-11T17:25:45.013Z,27.30
2018-07-11T17:28:13.634Z,27.30
2018-07-11T17:30:43.573Z,27.40
2018-07-11T17:33:13.079Z,27.40
2018-07-11T17:35:50.988Z,27.40
2018-07-11T17:38:23.612Z,27.40
2018-07-11T17:40:52.110Z,27.40
2018-07-11T17:43:21.735Z,27.40
2018-07-11T17:45:51.872Z,27.40
2018-07-11T17:48:27.012Z,27.40
2018-07-11T17:51:02.245Z,27.40
2018-07-11T17:53:37.085Z,27.30
2018-07-11T17:56:12.447Z,27.30
2018-07-11T17:58:58.021Z,27.40
2018-07-11T18:01:45.620Z,27.40
2018-07-11T18:05:26.213Z,27.40
2018-07-11T18:07:56.152Z,27.40
2018-07-11T18:10:32.540Z,27.30
2018-07-11T18:13:12.469Z,27.30
2018-07-11T18:15:49.267Z,27.30
2018-07-11T18:18:26.379Z,27.30
2018-07-11T18:21:09.443Z,27.30
2018-07-11T18:23:46.878Z,27.30
2018-07-11T18:26:24.761Z,27.30
2018-07-11T18:29:35.942Z,27.30
2018-07-11T18:33:11.470Z,27.30
2018-07-11T18:37:50.489Z,27.30
2018-07-11T18:40:36.236Z,27.30
2018-07-11T18:43:16.009Z,27.10
2018-07-11T18:45:56.474Z,27.10
2018-07-11T18:48:36.704Z,27.10
2018-07-11T18:53:21.385Z,27.20
2018-07-11T18:56:59.924Z,27.20
2018-07-11T19:00:42.258Z,27.00
2018-07-11T19:06:49.253Z,26.90
2018-07-11T19:09:29.928Z,26.90
2018-07-11T19:12:03.608Z,26.80
2018-07-11T19:14:40.908Z,26.90
2018-07-11T19:18:23.324Z,26.90
2018-07-11T19:21:00.600Z,27.00
2018-07-11T19:23:41.964Z,27.00
2018-07-11T19:26:21.554Z,27.00
2018-07-11T19:29:04.054Z,27.00
2018-07-11T19:31:41.529Z,27.00
2018-07-11T19:34:20.228Z,27.00
2018-07-11T19:37:00.094Z,27.00
2018-07-11T19:39:34.184Z,27.00
2018-07-11T19:43:13.335Z,27.00
2018-07-11T19:45:54.764Z,27.00
2018-07-11T19:48:37.906Z,26.90
2018-07-11T19:52:17.717Z,26.90
2018-07-11T19:55:17.427Z,26.90
2018-07-11T19:57:45.862Z,26.80
2018-07-11T20:00:14.282Z,26.80
2018-07-11T20:02:43.076Z,26.80
2018-07-11T20:05:11.654Z,26.80
2018-07-11T20:07:40.074Z,26.90
2018-07-11T20:10:08.983Z,26.90
2018-07-11T20:12:38.563Z,26.90
2018-07-11T20:15:07.565Z,26.90
2018-07-11T20:17:36.174Z,27.00
2018-07-11T20:20:06.453Z,27.00
2018-07-11T20:22:34.860Z,27.00
2018-07-11T20:25:03.388Z,27.00
2018-07-11T20:27:32.254Z,27.00
2018-07-11T20:30:00.700Z,27.00
2018-07-11T20:32:29.891Z,27.00
2018-07-11T20:34:58.293Z,27.00
2018-07-11T20:37:27.107Z,27.00
2018-07-11T20:39:56.673Z,27.00
2018-07-11T20:42:25.272Z,27.00
2018-07-11T20:44:55.974Z,27.00
2018-07-11T20:47:24.914Z,27.00
2018-07-11T20:49:53.331Z,27.10
2018-07-11T20:52:26.552Z,27.10
2018-07-11T20:54:55.348Z,27.10
2018-07-11T20:57:24.342Z,27.00
2018-07-11T21:00:04.477Z,27.00
2018-07-11T21:02:44.268Z,27.10
2018-07-11T21:05:24.081Z,27.00
2018-07-11T21:08:22.790Z,27.00
2018-07-11T21:11:03.567Z,27.00
2018-07-11T21:13:44.860Z,26.90
2018-07-11T21:24:39.794Z,27.00
2018-07-11T21:27:22.759Z,27.00
2018-07-11T21:29:51.264Z,26.90
2018-07-11T21:32:19.796Z,26.90
2018-07-11T21:34:48.339Z,26.90
2018-07-11T21:37:25.831Z,26.90
2018-07-11T21:39:58.325Z,26.90
2018-07-11T21:42:32.480Z,26.90
2018-07-11T21:45:01.454Z,26.90
2018-07-11T21:47:30.427Z,26.90
2018-07-11T21:49:59.134Z,26.90
2018-07-11T21:52:28.419Z,26.90
2018-07-11T21:54:56.981Z,26.90
2018-07-11T21:57:25.820Z,27.00
2018-07-11T21:59:54.324Z,27.10
2018-07-11T22:02:22.858Z,27.10
2018-07-11T22:04:51.827Z,27.10
2018-07-11T22:07:20.312Z,27.10
2018-07-11T22:09:48.975Z,27.20
2018-07-11T22:12:18.271Z,27.20
2018-07-11T22:14:46.917Z,27.20
2018-07-11T22:17:27.972Z,27.20
2018-07-11T22:19:55.310Z,27.20
2018-07-11T22:22:22.599Z,27.20
2018-07-11T22:24:51.600Z,27.30
2018-07-11T22:27:19.388Z,27.30
2018-07-11T22:29:47.266Z,27.20
2018-07-11T22:32:21.055Z,27.20
2018-07-11T22:34:49.211Z,27.30
2018-07-11T22:37:16.732Z,27.20
2018-07-11T22:39:47.812Z,27.30
2018-07-11T22:42:19.034Z,27.30
2018-07-11T22:44:46.332Z,27.20
2018-07-11T22:47:13.648Z,27.20
2018-07-11T22:49:45.843Z,27.20
2018-07-11T22:52:14.554Z,27.20
2018-07-11T22:54:42.090Z,27.20
2018-07-11T22:57:09.726Z,27.10
2018-07-11T22:59:37.688Z,27.10
2018-07-11T23:02:05.284Z,27.10
2018-07-11T23:04:32.871Z,27.10
2018-07-11T23:07:00.454Z,27.10
2018-07-11T23:09:28.648Z,27.10
2018-07-11T23:11:55.997Z,27.00
2018-07-11T23:14:23.285Z,27.00
2018-07-11T23:16:52.862Z,27.00
2018-07-11T23:19:20.193Z,27.00
2018-07-11T23:21:48.103Z,27.00
2018-07-11T23:24:15.582Z,27.00
2018-07-11T23:26:43.156Z,27.00
2018-07-11T23:29:10.825Z,27.00
2018-07-11T23:34:06.318Z,26.90
2018-07-11T23:36:34.736Z,26.90
2018-07-11T23:39:02.052Z,26.90
2018-07-11T23:41:29.354Z,26.90
2018-07-11T23:43:56.664Z,26.80
2018-07-11T23:46:23.966Z,26.80
2018-07-11T23:48:51.342Z,26.80
2018-07-11T23:51:18.638Z,26.80
2018-07-11T23:53:45.921Z,26.80
2018-07-11T23:56:13.320Z,26.80
2018-07-11T23:58:40.901Z,26.80
